Time;durP1;ratioP1;P1;durP2;ratioP2;P2;SDS_P1;SDS_P2;PMS_P1;PMS_P2;Temp;Humidity;BMP_temperature;BMP_pressure;BME280_temperature;BME280_humidity;BME280_pressure;Samples;Min_cycle;Max_cycle;Signal;HPM_P1;HPM_P2
2023/12/18 00:00:47;;;;;;;0.50;0.50;;;;;;;4.71;100.00;102014.81;5095630;28;20285;-79
2023/12/18 00:03:14;;;;;;;2.20;2.10;;;;;;;4.70;100.00;102007.94;5038556;28;20310;-80
2023/12/18 00:05:43;;;;;;;0.80;0.80;;;;;;;4.91;100.00;102023.91;5077132;28;20309;-78
2023/12/18 00:08:11;;;;;;;2.10;1.73;;;;;;;4.90;100.00;102022.13;5094888;28;20313;-80
2023/12/18 00:10:38;;;;;;;0.93;0.93;;;;;;;4.82;100.00;102024.16;5093410;28;20201;-78
2023/12/18 00:13:05;;;;;;;0.70;0.70;;;;;;;4.72;100.00;102000.31;5064473;28;20287;-79
2023/12/18 00:15:32;;;;;;;1.47;0.93;;;;;;;4.92;100.00;102028.28;5073800;28;20282;-79
2023/12/18 00:17:59;;;;;;;0.80;0.80;;;;;;;4.34;100.00;101924.06;5092946;28;20293;-79
2023/12/18 00:20:26;;;;;;;0.80;0.80;;;;;;;4.78;100.00;101995.59;5106575;28;20202;-79
2023/12/18 00:22:54;;;;;;;1.00;1.00;;;;;;;4.78;100.00;101995.59;5088057;28;20312;-80
2023/12/18 00:25:21;;;;;;;0.80;0.80;;;;;;;4.91;100.00;102024.81;5077881;28;20225;-79
2023/12/18 00:27:48;;;;;;;2.70;2.50;;;;;;;4.88;100.00;102019.47;5093788;28;20336;-79
2023/12/18 00:30:15;;;;;;;3.90;1.57;;;;;;;4.94;100.00;102013.84;5093702;28;20277;-79
2023/12/18 00:32:42;;;;;;;0.70;0.70;;;;;;;4.96;100.00;102023.44;5099238;28;20312;-78
2023/12/18 00:35:10;;;;;;;0.90;0.90;;;;;;;4.89;100.00;102005.81;5113090;28;20236;-78
2023/12/18 00:37:37;;;;;;;0.80;0.80;;;;;;;5.02;100.00;102020.41;5095465;28;20522;-78
2023/12/18 00:40:07;;;;;;;0.77;0.77;;;;;;;4.96;100.00;102013.16;5095015;28;20669;-77
2023/12/18 00:42:34;;;;;;;1.53;1.53;;;;;;;4.89;100.00;102007.47;5059674;28;20283;-78
2023/12/18 00:45:01;;;;;;;1.40;1.30;;;;;;;4.88;100.00;102010.88;5113167;28;20258;-79
2023/12/18 00:47:28;;;;;;;1.70;1.47;;;;;;;4.81;100.00;101999.28;5097894;28;20690;-79
2023/12/18 00:49:55;;;;;;;3.33;3.23;;;;;;;4.97;100.00;102022.66;5093201;28;20276;-78
2023/12/18 00:52:22;;;;;;;1.50;1.50;;;;;;;4.90;100.00;102024.69;5092302;28;20228;-78
2023/12/18 00:54:49;;;;;;;0.80;0.80;;;;;;;4.80;100.00;102030.00;5112679;28;20221;-79
2023/12/18 00:57:18;;;;;;;4.03;1.33;;;;;;;4.75;100.00;102011.69;5098871;28;20234;-78
2023/12/18 00:59:45;;;;;;;1.23;1.23;;;;;;;4.87;100.00;102027.06;5092421;28;20673;-79
2023/12/18 01:02:12;;;;;;;0.70;0.70;;;;;;;4.90;100.00;102019.56;5091550;28;20241;-77
2023/12/18 01:04:38;;;;;;;1.40;1.10;;;;;;;4.87;100.00;102011.63;5092093;28;20285;-77
2023/12/18 01:07:05;;;;;;;0.70;0.70;;;;;;;4.70;100.00;101991.59;5091838;28;20305;-78
2023/12/18 01:09:32;;;;;;;1.17;1.17;;;;;;;4.76;100.00;102002.31;5073699;28;20218;-77
2023/12/18 01:11:59;;;;;;;2.03;1.93;;;;;;;4.84;100.00;102007.19;5091317;28;20233;-77
2023/12/18 01:14:28;;;;;;;0.80;0.80;;;;;;;4.69;100.00;101985.56;5108288;28;20686;-78
2023/12/18 01:16:55;;;;;;;0.80;0.80;;;;;;;4.77;100.00;102015.25;5102813;28;20233;-77
2023/12/18 01:19:22;;;;;;;3.37;0.87;;;;;;;4.84;100.00;102007.19;5091572;28;20241;-78
2023/12/18 01:21:49;;;;;;;0.90;0.90;;;;;;;4.74;100.00;101983.31;5092386;28;20276;-77
2023/12/18 01:24:16;;;;;;;2.80;1.37;;;;;;;4.83;100.00;101999.38;5091356;28;20262;-78
2023/12/18 01:26:43;;;;;;;1.93;1.83;;;;;;;4.88;100.00;101995.44;5091376;28;20214;-78
2023/12/18 01:29:10;;;;;;;1.20;1.20;;;;;;;4.83;100.00;102009.63;5090732;28;20678;-79
2023/12/18 01:31:39;;;;;;;0.97;0.97;;;;;;;4.75;100.00;101980.84;5092326;28;20230;-79
2023/12/18 01:34:06;;;;;;;0.73;0.73;;;;;;;4.89;100.00;102000.66;5091409;28;20659;-78
2023/12/18 01:36:33;;;;;;;0.70;0.70;;;;;;;4.90;100.00;101991.28;5091280;28;20194;-77
2023/12/18 01:39:02;;;;;;;2.17;2.07;;;;;;;4.93;100.00;101976.06;5091101;28;20285;-78
2023/12/18 01:41:28;;;;;;;0.90;0.90;;;;;;;4.80;100.00;101960.63;5090933;28;20206;-78
2023/12/18 01:43:56;;;;;;;0.80;0.80;;;;;;;4.85;100.00;101959.25;5104312;28;20237;-78
2023/12/18 01:46:23;;;;;;;0.90;0.90;;;;;;;4.98;100.00;101982.41;5108302;28;20238;-78
2023/12/18 01:48:52;;;;;;;1.00;1.00;;;;;;;4.97;100.00;101980.63;5091268;28;20313;-78
2023/12/18 01:51:22;;;;;;;0.80;0.80;;;;;;;5.00;100.00;101981.72;5090911;28;20752;-78
2023/12/18 01:53:52;;;;;;;2.13;1.10;;;;;;;4.91;100.00;101964.81;5091228;28;20213;-78
2023/12/18 01:56:23;;;;;;;1.20;1.13;;;;;;;4.93;100.00;101945.22;5091780;28;20236;-78
2023/12/18 01:58:50;;;;;;;1.00;1.00;;;;;;;4.98;100.00;101964.44;5091869;28;20209;-78
2023/12/18 02:01:18;;;;;;;1.50;0.70;;;;;;;5.04;100.00;101954.53;5092282;28;20221;-79
2023/12/18 02:03:46;;;;;;;1.23;1.23;;;;;;;5.01;100.00;101938.91;5061605;28;20293;-78
2023/12/18 02:06:15;;;;;;;0.80;0.80;;;;;;;4.95;100.00;101928.25;5046096;28;20245;-78
2023/12/18 02:08:42;;;;;;;2.83;2.63;;;;;;;5.11;100.00;101951.59;5091853;28;20261;-79
2023/12/18 02:11:09;;;;;;;1.10;1.10;;;;;;;5.10;100.00;101949.81;5091780;28;20289;-78
2023/12/18 02:13:36;;;;;;;0.90;0.90;;;;;;;5.05;100.00;101934.88;5097441;28;20222;-79
2023/12/18 02:16:03;;;;;;;0.90;0.90;;;;;;;5.08;100.00;101937.66;5109852;28;20240;-78
2023/12/18 02:18:30;;;;;;;0.70;0.70;;;;;;;5.08;100.00;101935.97;5072265;28;20279;-78
2023/12/18 02:20:57;;;;;;;0.70;0.70;;;;;;;5.11;100.00;101933.59;5105017;28;20285;-78
2023/12/18 02:23:26;;;;;;;0.70;0.70;;;;;;;5.00;100.00;101911.44;5104112;28;20700;-78
2023/12/18 02:25:53;;;;;;;0.80;0.80;;;;;;;4.95;100.00;101924.00;5111882;28;20364;-78
2023/12/18 02:28:20;;;;;;;1.20;1.20;;;;;;;4.88;100.00;101920.91;5094395;28;20832;-78
2023/12/18 02:30:47;;;;;;;0.73;0.73;;;;;;;4.91;100.00;101918.53;5044212;28;20220;-79
2023/12/18 02:33:14;;;;;;;1.40;1.30;;;;;;;4.95;100.00;101917.97;5104213;28;20256;-78
2023/12/18 02:35:40;;;;;;;0.97;0.97;;;;;;;4.82;100.00;101889.63;5111627;28;20244;-79
2023/12/18 02:38:07;;;;;;;5.53;2.17;;;;;;;4.95;100.00;101920.53;5096645;28;20222;-81
2023/12/18 02:40:36;;;;;;;1.37;1.37;;;;;;;4.94;100.00;101916.16;5039495;28;20650;-78
2023/12/18 02:43:03;;;;;;;0.70;0.70;;;;;;;5.01;100.00;101920.94;5091395;28;20281;-78
2023/12/18 02:45:30;;;;;;;1.10;1.10;;;;;;;4.94;100.00;101927.34;5091020;28;20576;-77
2023/12/18 02:47:57;;;;;;;0.70;0.70;;;;;;;4.93;100.00;101914.38;5089976;28;20316;-78
2023/12/18 02:50:24;;;;;;;0.70;0.70;;;;;;;5.00;100.00;101911.44;5090365;28;20244;-78
2023/12/18 02:52:50;;;;;;;3.60;1.57;;;;;;;4.91;100.00;101922.00;5094689;28;20280;-78
2023/12/18 02:55:17;;;;;;;0.70;0.70;;;;;;;4.97;100.00;101922.41;5090560;28;20230;-79
2023/12/18 02:57:46;;;;;;;1.40;1.30;;;;;;;5.07;100.00;101916.19;5075432;28;20202;-78
2023/12/18 03:00:13;;;;;;;0.70;0.70;;;;;;;4.93;100.00;101901.53;5042623;28;20212;-79
2023/12/18 03:02:41;;;;;;;1.00;1.00;;;;;;;4.98;100.00;101918.16;5094167;28;20245;-79
2023/12/18 03:05:08;;;;;;;1.10;1.10;;;;;;;5.01;100.00;101913.22;5094394;28;20588;-78
2023/12/18 03:07:35;;;;;;;0.70;0.70;;;;;;;4.96;100.00;101912.00;5042722;28;20190;-78
2023/12/18 03:10:02;;;;;;;0.73;0.73;;;;;;;5.10;100.00;101911.25;5094359;28;20202;-77
2023/12/18 03:12:29;;;;;;;1.03;1.03;;;;;;;5.14;99.99;101910.66;5100869;28;20226;-77
2023/12/18 03:14:58;;;;;;;1.00;1.00;;;;;;;5.17;100.00;101910.00;5042002;28;20285;-78
2023/12/18 03:17:25;;;;;;;0.93;0.93;;;;;;;5.04;99.11;101892.84;5093650;28;20277;-79
2023/12/18 03:19:52;;;;;;;1.00;1.00;;;;;;;5.11;99.42;101901.84;5095259;28;20285;-78
2023/12/18 03:22:19;;;;;;;0.77;0.77;;;;;;;5.17;99.27;101899.72;5092956;28;20198;-77
2023/12/18 03:24:46;;;;;;;1.10;1.10;;;;;;;5.09;97.78;101881.19;5093233;28;20281;-78
2023/12/18 03:27:13;;;;;;;0.60;0.60;;;;;;;5.12;98.24;101899.41;5052628;28;20397;-79
2023/12/18 03:29:40;;;;;;;0.87;0.87;;;;;;;5.29;99.14;101908.19;5040875;28;20237;-78
2023/12/18 03:32:08;;;;;;;0.77;0.77;;;;;;;5.06;99.44;101870.72;5105661;28;20674;-78
2023/12/18 03:34:35;;;;;;;0.80;0.80;;;;;;;5.26;98.51;101906.31;5061896;28;20229;-78
2023/12/18 03:37:02;;;;;;;0.60;0.60;;;;;;;5.14;99.10;101878.91;5040519;28;20230;-78
2023/12/18 03:39:29;;;;;;;0.60;0.60;;;;;;;5.19;97.83;101892.97;5093508;28;20777;-78
2023/12/18 03:41:57;;;;;;;0.80;0.80;;;;;;;5.34;96.95;101910.31;5091553;28;20284;-77
2023/12/18 03:44:24;;;;;;;0.60;0.60;;;;;;;5.27;97.45;101918.41;5094542;28;20201;-79
2023/12/18 03:46:51;;;;;;;4.43;1.20;;;;;;;5.28;97.35;101915.03;5094507;28;20273;-79
2023/12/18 03:49:19;;;;;;;0.80;0.80;;;;;;;5.23;96.93;101890.69;5074681;28;20265;-80
2023/12/18 03:51:46;;;;;;;0.90;0.90;;;;;;;5.27;97.48;101907.22;5093885;28;20655;-78
2023/12/18 03:54:13;;;;;;;1.33;1.33;;;;;;;5.27;97.91;101887.53;5092497;28;20296;-77
2023/12/18 03:56:40;;;;;;;0.60;0.60;;;;;;;5.19;96.56;101860.44;5093729;28;20636;-78
2023/12/18 03:59:07;;;;;;;3.83;1.43;;;;;;;5.34;96.81;101891.41;5093136;28;20249;-77
2023/12/18 04:01:34;;;;;;;0.67;0.67;;;;;;;5.33;96.73;101862.22;5104797;28;20202;-76
2023/12/18 04:04:01;;;;;;;1.23;1.23;;;;;;;5.48;96.70;101868.34;5044811;28;20210;-76
2023/12/18 04:06:29;;;;;;;1.07;1.07;;;;;;;5.10;97.28;101805.84;5090248;28;20201;-76
2023/12/18 04:08:56;;;;;;;0.93;0.93;;;;;;;5.38;95.62;101881.41;5093099;28;20308;-76
2023/12/18 04:11:23;;;;;;;1.10;1.10;;;;;;;5.41;95.98;101873.00;5103616;28;20280;-76
2023/12/18 04:13:51;;;;;;;3.03;1.53;;;;;;;5.37;96.30;101877.06;5097910;28;20197;-77
2023/12/18 04:16:18;;;;;;;0.77;0.77;;;;;;;5.41;96.97;101870.44;5093100;28;20749;-77
2023/12/18 04:18:45;;;;;;;0.97;0.97;;;;;;;5.40;96.04;101868.63;5092370;28;20288;-77
2023/12/18 04:21:12;;;;;;;0.90;0.90;;;;;;;5.39;94.96;101865.16;5093999;28;20285;-76
2023/12/18 04:23:40;;;;;;;1.33;1.27;;;;;;;5.47;95.38;101863.97;5056931;28;20265;-76
2023/12/18 04:26:09;;;;;;;1.13;1.00;;;;;;;5.48;94.55;101854.59;5057336;28;20293;-76
2023/12/18 04:28:36;;;;;;;1.83;1.73;;;;;;;5.46;95.24;101857.06;5089952;28;20769;-76
2023/12/18 04:31:03;;;;;;;0.80;0.80;;;;;;;5.46;94.68;101862.19;5092276;28;20269;-76
2023/12/18 04:33:30;;;;;;;0.77;0.77;;;;;;;5.54;94.44;101870.41;5090013;28;20313;-77
2023/12/18 04:35:57;;;;;;;1.97;1.53;;;;;;;5.50;94.19;101874.47;5092126;28;20245;-76
2023/12/18 04:38:24;;;;;;;1.00;1.00;;;;;;;5.57;93.61;101872.28;5037571;28;20317;-76
2023/12/18 04:40:52;;;;;;;0.70;0.70;;;;;;;5.57;94.34;101874.84;5102455;28;20288;-77
2023/12/18 04:43:19;;;;;;;0.70;0.70;;;;;;;5.47;95.05;101870.81;5095050;28;20248;-77
2023/12/18 04:45:46;;;;;;;0.70;0.70;;;;;;;5.38;94.33;101866.00;5091831;28;20292;-78
2023/12/18 04:48:13;;;;;;;1.20;1.20;;;;;;;5.34;95.50;101869.16;5089187;28;20281;-79
2023/12/18 04:50:40;;;;;;;0.73;0.73;;;;;;;5.45;95.49;101878.44;5060125;28;20202;-77
2023/12/18 04:53:07;;;;;;;1.27;1.17;;;;;;;5.37;95.39;101863.31;5092161;28;20283;-79
2023/12/18 04:55:34;;;;;;;1.30;1.30;;;;;;;5.39;94.53;101867.75;5092747;28;20277;-78
2023/12/18 04:58:02;;;;;;;0.90;0.90;;;;;;;5.55;94.64;101889.31;5042545;28;20202;-78
2023/12/18 05:00:29;;;;;;;0.80;0.80;;;;;;;5.54;94.75;101887.53;5073608;28;20233;-78
2023/12/18 05:02:56;;;;;;;0.90;0.90;;;;;;;5.51;94.43;101877.94;5092101;28;20740;-78
2023/12/18 05:05:23;;;;;;;0.80;0.80;;;;;;;5.36;94.75;101852.13;5092724;28;20225;-78
2023/12/18 05:07:50;;;;;;;1.30;1.30;;;;;;;5.62;94.89;101883.75;5092685;28;20190;-78
2023/12/18 05:10:17;;;;;;;0.70;0.70;;;;;;;5.60;95.42;101877.63;5093138;28;20224;-78
2023/12/18 05:12:44;;;;;;;0.63;0.63;;;;;;;5.54;94.26;101875.56;5056775;28;20721;-78
2023/12/18 05:15:13;;;;;;;1.60;1.20;;;;;;;5.54;94.47;101878.13;5091844;28;20281;-78
2023/12/18 05:17:41;;;;;;;0.80;0.80;;;;;;;5.47;95.37;101873.38;5091782;28;20259;-78
2023/12/18 05:20:09;;;;;;;0.70;0.70;;;;;;;5.50;95.42;101871.00;5091414;28;20210;-77
2023/12/18 05:22:36;;;;;;;0.90;0.90;;;;;;;5.41;95.15;101866.19;5091287;28;20264;-77
2023/12/18 05:25:03;;;;;;;0.90;0.90;;;;;;;5.53;95.27;101865.19;5092806;28;20215;-78
2023/12/18 05:27:30;;;;;;;1.23;1.23;;;;;;;5.52;94.24;101854.00;5093195;28;20756;-78
2023/12/18 05:29:57;;;;;;;0.73;0.73;;;;;;;5.55;95.30;101858.44;5091896;28;20304;-78
2023/12/18 05:32:25;;;;;;;1.00;1.00;;;;;;;5.56;95.58;101848.25;5091392;28;20261;-76
2023/12/18 05:34:52;;;;;;;1.00;1.00;;;;;;;5.50;94.44;101838.44;5091285;28;20282;-75
2023/12/18 05:37:19;;;;;;;2.57;1.63;;;;;;;5.49;94.01;101843.50;5091559;28;20230;-77
2023/12/18 05:39:45;;;;;;;1.00;1.00;;;;;;;5.64;93.59;101861.56;5053667;28;20284;-75
2023/12/18 05:42:12;;;;;;;0.73;0.73;;;;;;;5.71;93.16;101858.59;5102589;28;20288;-76
2023/12/18 05:44:39;;;;;;;1.37;1.37;;;;;;;5.73;92.50;101867.31;5075219;28;20280;-76
2023/12/18 05:47:06;;;;;;;1.83;1.83;;;;;;;5.71;92.91;101859.50;5066874;28;20615;-77
2023/12/18 05:49:34;;;;;;;1.00;1.00;;;;;;;5.74;92.52;101861.38;5039392;28;20217;-78
2023/12/18 05:52:01;;;;;;;0.70;0.70;;;;;;;5.69;93.05;101862.75;5082588;28;20288;-81
2023/12/18 05:54:28;;;;;;;0.80;0.80;;;;;;;5.76;93.49;101865.81;5096723;28;20278;-79
2023/12/18 05:56:55;;;;;;;0.90;0.90;;;;;;;5.75;92.45;101853.75;5091252;28;20764;-79
2023/12/18 05:59:22;;;;;;;3.17;3.00;;;;;;;5.57;91.78;101824.28;5091214;28;20289;-78
2023/12/18 06:01:49;;;;;;;1.43;1.37;;;;;;;5.75;92.08;101858.88;5090949;28;20230;-79
2023/12/18 06:04:16;;;;;;;0.80;0.80;;;;;;;5.76;92.06;101857.22;5092813;28;20205;-81
2023/12/18 06:06:44;;;;;;;0.70;0.70;;;;;;;5.85;92.16;101850.06;5091892;28;20236;-81
2023/12/18 06:09:11;;;;;;;0.80;0.80;;;;;;;5.54;91.46;101810.34;5059070;28;20264;-82
2023/12/18 06:11:38;;;;;;;1.03;1.03;;;;;;;5.65;91.08;101819.63;5067881;28;20281;-77
2023/12/18 06:14:05;;;;;;;0.80;0.80;;;;;;;5.85;90.82;101844.94;5091893;28;20229;-71
2023/12/18 06:16:32;;;;;;;0.80;0.80;;;;;;;5.93;89.89;101843.72;5090956;28;20202;-79
2023/12/18 06:18:59;;;;;;;0.80;0.80;;;;;;;5.85;89.67;101816.63;5095972;28;20284;-78
2023/12/18 06:21:26;;;;;;;0.90;0.90;;;;;;;5.85;89.65;101811.47;5090712;28;20309;-78
2023/12/18 06:23:55;;;;;;;1.00;1.00;;;;;;;5.85;88.93;101809.75;5099033;28;20198;-77
2023/12/18 06:26:22;;;;;;;0.90;0.90;;;;;;;6.04;89.34;101841.81;5098709;28;20231;-78
2023/12/18 06:28:48;;;;;;;0.70;0.70;;;;;;;6.08;89.19;101836.94;5095978;28;20337;-78
2023/12/18 06:31:15;;;;;;;1.40;1.30;;;;;;;5.89;89.12;101805.72;5109308;28;20205;-75
2023/12/18 06:33:42;;;;;;;1.67;1.57;;;;;;;5.83;89.95;101802.75;5067904;28;20288;-78
2023/12/18 06:36:09;;;;;;;0.93;0.93;;;;;;;6.07;89.13;101842.00;5095690;28;20245;-70
2023/12/18 06:38:36;;;;;;;0.90;0.90;;;;;;;6.08;88.90;101839.53;5084077;28;20232;-75
2023/12/18 06:41:05;;;;;;;0.67;0.67;;;;;;;6.15;89.24;101833.94;5086831;28;20229;-77
2023/12/18 06:43:32;;;;;;;0.70;0.70;;;;;;;6.09;88.99;101823.28;5111559;28;20220;-76
2023/12/18 06:45:59;;;;;;;1.57;1.47;;;;;;;6.17;89.02;101834.91;5112059;28;20198;-77
2023/12/18 06:48:26;;;;;;;1.43;1.43;;;;;;;6.11;90.20;101821.69;5111140;28;20218;-77
2023/12/18 06:50:53;;;;;;;1.20;1.10;;;;;;;6.12;89.50;101818.31;5096809;28;20290;-76
2023/12/18 06:53:20;;;;;;;1.00;1.00;;;;;;;5.87;89.33;101787.63;5083430;28;20230;-76
2023/12/18 06:55:47;;;;;;;0.90;0.90;;;;;;;6.21;88.63;101824.00;5101848;28;20716;-77
2023/12/18 06:58:16;;;;;;;0.80;0.80;;;;;;;6.29;88.23;101827.94;5103731;28;20229;-78
2023/12/18 07:00:43;;;;;;;0.70;0.70;;;;;;;6.28;88.75;101838.13;5109160;28;20601;-77
2023/12/18 07:03:10;;;;;;;1.00;1.00;;;;;;;6.23;87.32;101825.00;5104510;28;20229;-77
2023/12/18 07:05:38;;;;;;;1.77;1.77;;;;;;;6.18;87.12;101813.53;5098868;28;20273;-78
2023/12/18 07:08:05;;;;;;;0.70;0.70;;;;;;;5.61;86.77;101694.13;5100171;28;20241;-78
2023/12/18 07:10:32;;;;;;;1.00;1.00;;;;;;;5.71;87.11;101720.53;5085048;28;20324;-78
2023/12/18 07:12:59;;;;;;;1.60;1.50;;;;;;;6.46;87.04;101818.63;5101456;28;20745;-80
2023/12/18 07:15:27;;;;;;;1.43;0.87;;;;;;;6.52;86.09;101833.59;5105210;28;20270;-78
2023/12/18 07:17:54;;;;;;;1.13;1.13;;;;;;;6.59;85.92;101833.16;5104111;28;20241;-78
2023/12/18 07:20:21;;;;;;;1.20;1.20;;;;;;;6.68;86.23;101846.56;5110387;28;20681;-75
2023/12/18 07:22:48;;;;;;;1.07;1.07;;;;;;;6.64;85.71;101835.19;5097776;28;20289;-76
2023/12/18 07:25:15;;;;;;;0.80;0.80;;;;;;;6.74;85.07;101836.63;5096530;28;20277;-73
2023/12/18 07:27:44;;;;;;;6.00;1.50;;;;;;;6.85;84.40;101833.84;5066966;28;20301;-73
2023/12/18 07:30:12;;;;;;;0.80;0.80;;;;;;;6.85;84.61;101809.75;5094067;28;20218;-73
2023/12/18 07:32:41;;;;;;;0.60;0.60;;;;;;;7.04;83.80;101829.75;5096459;28;20678;-74
2023/12/18 07:35:08;;;;;;;1.13;1.13;;;;;;;6.90;83.60;101818.66;5096930;28;20285;-71
2023/12/18 07:37:35;;;;;;;1.40;1.30;;;;;;;7.09;84.76;101821.50;5078457;28;20277;-78
2023/12/18 07:40:03;;;;;;;0.90;0.90;;;;;;;7.08;83.88;101824.84;5101049;28;20281;-83
2023/12/18 07:42:30;;;;;;;0.90;0.90;;;;;;;7.01;83.74;101833.06;5075928;28;20432;-83
2023/12/18 07:44:57;;;;;;;0.90;0.90;;;;;;;7.01;83.18;101827.00;5093607;28;20289;-83
2023/12/18 07:47:24;;;;;;;0.70;0.70;;;;;;;7.01;83.90;101845.94;5088315;28;20592;-82
2023/12/18 07:49:52;;;;;;;0.83;0.83;;;;;;;7.11;83.73;101839.59;5084847;28;20622;-79
2023/12/18 07:52:19;;;;;;;0.70;0.70;;;;;;;6.94;83.32;101824.09;5054760;28;20230;-81
2023/12/18 07:54:46;;;;;;;1.17;1.10;;;;;;;7.06;83.76;101835.91;5084926;28;20226;-82
2023/12/18 07:57:13;;;;;;;1.07;1.07;;;;;;;7.07;83.61;101838.53;5094047;28;20285;-76
2023/12/18 07:59:40;;;;;;;1.23;1.23;;;;;;;7.32;83.13;101807.28;5093300;28;20607;-83
2023/12/18 08:02:08;;;;;;;0.80;0.80;;;;;;;7.40;82.72;101830.13;5094109;28;20277;-74
2023/12/18 08:04:35;;;;;;;0.60;0.60;;;;;;;7.29;82.39;101844.13;5084669;28;20282;-83
2023/12/18 08:07:04;;;;;;;0.90;0.90;;;;;;;7.37;83.26;101850.63;5050900;28;20592;-83
2023/12/18 08:09:31;;;;;;;0.70;0.70;;;;;;;7.37;82.49;101855.78;5088319;28;20238;-82
2023/12/18 08:11:58;;;;;;;0.70;0.70;;;;;;;7.45;80.98;101827.81;5084732;28;20292;-82
2023/12/18 08:14:26;;;;;;;0.70;0.70;;;;;;;7.63;80.57;101853.75;5068307;28;20255;-82
2023/12/18 08:16:53;;;;;;;0.80;0.80;;;;;;;7.69;80.08;101848.91;5082830;28;20325;-84
2023/12/18 08:19:20;;;;;;;0.60;0.60;;;;;;;7.60;80.86;101845.84;5095015;28;20321;-83
2023/12/18 08:21:47;;;;;;;1.53;1.43;;;;;;;7.73;80.72;101848.28;5082710;28;20302;-83
2023/12/18 08:24:15;;;;;;;1.00;1.00;;;;;;;7.69;80.11;101843.75;5089457;28;20281;-82
2023/12/18 08:26:42;;;;;;;0.90;0.90;;;;;;;7.74;80.42;101842.31;5093451;28;20240;-83
2023/12/18 08:29:09;;;;;;;1.53;1.43;;;;;;;7.64;80.08;101840.91;5092926;28;20277;-80
2023/12/18 08:31:37;;;;;;;0.80;0.80;;;;;;;7.71;80.37;101843.03;5067395;28;20210;-82
2023/12/18 08:34:04;;;;;;;1.10;1.10;;;;;;;7.55;80.72;101850.75;5086330;28;20242;-81
2023/12/18 08:36:31;;;;;;;0.60;0.60;;;;;;;7.54;80.12;101822.25;5092931;28;20281;-82
2023/12/18 08:38:58;;;;;;;0.70;0.70;;;;;;;7.69;80.34;101828.25;5092724;28;20614;-79
2023/12/18 08:41:27;;;;;;;0.60;0.60;;;;;;;7.80;79.76;101811.66;5092822;28;20678;-80
2023/12/18 08:43:53;;;;;;;1.20;1.20;;;;;;;7.97;78.87;101826.34;5092564;28;20281;-80
2023/12/18 08:46:20;;;;;;;0.60;0.60;;;;;;;7.94;78.94;101827.09;5073963;28;20297;-80
2023/12/18 08:48:47;;;;;;;0.93;0.90;;;;;;;7.95;79.76;101838.31;5092747;28;20816;-80
2023/12/18 08:51:16;;;;;;;0.80;0.80;;;;;;;8.01;79.01;101801.56;5092964;28;20309;-81
2023/12/18 08:53:43;;;;;;;0.60;0.60;;;;;;;8.12;79.41;101815.94;5091381;28;20289;-80
2023/12/18 08:56:10;;;;;;;0.50;0.50;;;;;;;8.24;78.71;101812.28;5073404;28;20688;-79
2023/12/18 08:58:39;;;;;;;0.97;0.97;;;;;;;8.17;78.70;101781.78;5092169;28;20281;-79
2023/12/18 09:01:06;;;;;;;0.70;0.70;;;;;;;8.46;77.29;101798.81;5073562;28;20307;-79
2023/12/18 09:03:35;;;;;;;0.70;0.70;;;;;;;8.59;77.40;101808.09;5092444;28;20284;-76
2023/12/18 09:06:03;;;;;;;0.73;0.73;;;;;;;8.63;76.48;101794.50;5092452;28;20662;-79
2023/12/18 09:08:32;;;;;;;1.17;1.17;;;;;;;8.61;75.82;101793.53;5092035;28;20198;-80
2023/12/18 09:10:59;;;;;;;1.03;1.03;;;;;;;8.59;76.92;101784.81;5091737;28;20228;-79
2023/12/18 09:13:26;;;;;;;0.67;0.67;;;;;;;8.56;76.43;101789.84;5091953;28;20650;-79
2023/12/18 09:15:54;;;;;;;0.93;0.93;;;;;;;8.46;78.06;101789.38;5072772;28;20289;-80
2023/12/18 09:18:21;;;;;;;0.53;0.53;;;;;;;8.50;78.58;101782.66;5073544;28;20686;-81
2023/12/18 09:20:48;;;;;;;0.80;0.80;;;;;;;8.61;78.28;101775.44;5091646;28;20281;-80
2023/12/18 09:23:15;;;;;;;3.50;2.10;;;;;;;8.52;79.09;101768.13;5091733;28;20277;-81
2023/12/18 09:25:42;;;;;;;0.60;0.60;;;;;;;8.44;79.71;101769.44;5091785;28;20666;-80
2023/12/18 09:28:09;;;;;;;0.97;0.97;;;;;;;8.53;79.18;101761.22;5091949;28;20189;-82
2023/12/18 09:30:36;;;;;;;1.47;1.37;;;;;;;8.42;79.79;101763.28;5091991;28;20304;-81
2023/12/18 09:33:05;;;;;;;0.80;0.80;;;;;;;8.40;80.84;101768.38;5091593;28;20316;-79
2023/12/18 09:35:32;;;;;;;10.03;7.40;;;;;;;8.48;80.88;101775.63;5091525;28;20290;-81
2023/12/18 09:37:58;;;;;;;8.87;6.03;;;;;;;8.37;81.51;101747.56;5091762;28;20281;-78
2023/12/18 09:40:25;;;;;;;10.80;9.67;;;;;;;8.61;81.19;101758.22;5072475;28;20204;-80
2023/12/18 09:42:53;;;;;;;3.03;2.80;;;;;;;8.56;82.15;101738.13;5091176;28;20198;-79
2023/12/18 09:45:23;;;;;;;10.37;3.70;;;;;;;8.64;82.90;101727.34;5091742;28;20202;-80
2023/12/18 09:47:50;;;;;;;12.80;4.87;;;;;;;8.88;82.26;101743.19;5091638;28;20293;-80
2023/12/18 09:50:19;;;;;;;4.70;1.73;;;;;;;8.96;81.41;101754.75;5091562;28;20226;-80
2023/12/18 09:52:54;;;;;;;2.87;2.77;;;;;;;9.00;80.85;101748.94;5091194;28;20243;-80
2023/12/18 09:55:22;;;;;;;4.70;4.40;;;;;;;9.12;80.34;101748.63;5091667;28;20198;-79
2023/12/18 09:57:52;;;;;;;1.03;1.03;;;;;;;9.13;79.28;101743.50;5091457;28;20281;-81
2023/12/18 10:00:21;;;;;;;1.90;1.47;;;;;;;9.12;79.96;101739.19;5087153;28;20292;-80
2023/12/18 10:02:49;;;;;;;0.70;0.70;;;;;;;9.03;80.25;101715.44;5070642;28;20199;-79
2023/12/18 10:05:16;;;;;;;1.00;1.00;;;;;;;9.26;79.24;101738.13;5080991;28;20196;-80
2023/12/18 10:07:44;;;;;;;0.60;0.60;;;;;;;9.32;79.23;101734.91;5076502;28;20289;-80
2023/12/18 10:10:11;;;;;;;0.70;0.70;;;;;;;9.36;79.44;101732.53;5076582;28;20218;-80
2023/12/18 10:12:39;;;;;;;0.70;0.70;;;;;;;9.38;79.95;101728.31;5090780;28;20288;-80
2023/12/18 10:15:07;;;;;;;0.60;0.60;;;;;;;9.54;80.08;101716.06;5090622;28;20202;-79
2023/12/18 10:17:34;;;;;;;1.10;1.10;;;;;;;9.61;79.84;101716.41;5090769;28;20296;-80
2023/12/18 10:20:03;;;;;;;2.63;1.33;;;;;;;9.64;79.40;101687.19;5089889;28;20206;-80
2023/12/18 10:22:30;;;;;;;1.27;1.27;;;;;;;9.68;79.24;101715.00;5090736;28;20202;-81
2023/12/18 10:24:59;;;;;;;0.60;0.60;;;;;;;9.80;78.98;101702.59;5081964;28;20419;-81
2023/12/18 10:27:26;;;;;;;0.83;0.83;;;;;;;9.90;79.42;101699.59;5091091;28;20222;-81
2023/12/18 10:29:54;;;;;;;0.80;0.80;;;;;;;9.79;78.42;101700.81;5090369;28;20289;-78
2023/12/18 10:32:23;;;;;;;1.00;1.00;;;;;;;9.68;77.74;101686.50;5090445;28;20233;-79
2023/12/18 10:34:51;;;;;;;0.70;0.70;;;;;;;9.79;78.07;101686.16;5083406;28;20285;-81
2023/12/18 10:37:19;;;;;;;0.60;0.60;;;;;;;9.72;78.78;101657.31;5041799;28;20597;-80
2023/12/18 10:39:50;;;;;;;0.90;0.90;;;;;;;9.85;79.54;101676.06;5091112;28;20289;-79
2023/12/18 10:42:25;;;;;;;1.07;1.07;;;;;;;9.84;79.53;101670.81;5090580;28;20277;-80
2023/12/18 10:44:53;;;;;;;0.80;0.80;;;;;;;9.91;78.76;101671.16;5084430;28;20310;-79
2023/12/18 10:47:21;;;;;;;0.70;0.70;;;;;;;9.97;78.61;101657.56;5058211;28;20206;-79
2023/12/18 10:49:52;;;;;;;2.00;1.67;;;;;;;10.03;78.51;101662.09;5076667;28;20336;-83
2023/12/18 10:52:21;;;;;;;0.80;0.80;;;;;;;10.06;78.54;101660.53;5090521;28;20205;-82
2023/12/18 10:54:49;;;;;;;0.80;0.80;;;;;;;9.84;79.12;101640.63;5090100;28;20285;-79
2023/12/18 10:57:19;;;;;;;0.80;0.80;;;;;;;9.84;78.82;101642.31;5090345;28;20282;-79
2023/12/18 10:59:50;;;;;;;1.80;1.20;;;;;;;9.96;79.37;101645.41;5090014;28;20653;-79
2023/12/18 11:02:18;;;;;;;0.80;0.80;;;;;;;10.08;81.53;101642.47;5070449;28;20234;-79
2023/12/18 11:04:46;;;;;;;1.40;1.30;;;;;;;10.04;80.09;101636.28;5087441;28;20293;-79
2023/12/18 11:07:15;;;;;;;0.50;0.50;;;;;;;9.93;80.06;101598.66;5090569;28;20684;-78
2023/12/18 11:09:43;;;;;;;1.20;1.07;;;;;;;10.34;79.85;101634.09;5090431;28;20202;-79
2023/12/18 11:12:12;;;;;;;1.53;1.53;;;;;;;10.29;80.26;101639.09;5090191;28;20776;-78
2023/12/18 11:14:48;;;;;;;0.90;0.90;;;;;;;10.40;80.60;101632.63;5090674;28;20707;-78
2023/12/18 11:17:28;;;;;;;0.90;0.90;;;;;;;10.53;81.16;101633.09;5073052;28;20194;-78
2023/12/18 11:20:02;;;;;;;0.70;0.70;;;;;;;10.45;82.33;101619.88;5094161;28;20296;-75
2023/12/18 11:22:45;;;;;;;1.77;1.67;;;;;;;10.62;81.43;101630.91;5094587;28;20239;-79
2023/12/18 11:25:12;;;;;;;5.20;0.90;;;;;;;10.45;79.98;101631.09;5094062;28;20201;-78
2023/12/18 11:27:42;;;;;;;1.00;1.00;;;;;;;10.52;79.98;101611.50;5059023;28;20194;-78
2023/12/18 11:30:24;;;;;;;0.83;0.83;;;;;;;10.74;79.68;101623.56;5093900;28;20198;-78
2023/12/18 11:32:53;;;;;;;0.87;0.87;;;;;;;10.72;79.72;101622.66;5093489;28;20329;-78